sensor_id;sensor_type;location;lat;lon;timestamp;pressure;altitude;pressure_sealevel;temperature;humidity
57628;BME280;43451;49.060;10.616;2023-08-20T00:00:17;97094.53;;;20.97;100.00
57628;BME280;43451;49.060;10.616;2023-08-20T00:02:45;97092.94;;;20.86;100.00
57628;BME280;43451;49.060;10.616;2023-08-20T00:05:12;97090.00;;;20.81;100.00
57628;BME280;43451;49.060;10.616;2023-08-20T00:07:38;97091.34;;;20.76;100.00
57628;BME280;43451;49.060;10.616;2023-08-20T00:10:04;97080.00;;;20.74;100.00
57628;BME280;43451;49.060;10.616;2023-08-20T00:12:30;97087.94;;;20.72;100.00
57628;BME280;43451;49.060;10.616;2023-08-20T00:15:03;97086.41;;;20.71;100.00
57628;BME280;43451;49.060;10.616;2023-08-20T00:17:36;97078.75;;;20.75;100.00
57628;BME280;43451;49.060;10.616;2023-08-20T00:20:03;97081.31;;;20.70;100.00
57628;BME280;43451;49.060;10.616;2023-08-20T00:22:36;97076.50;;;20.61;100.00
57628;BME280;43451;49.060;10.616;2023-08-20T00:25:02;97080.81;;;20.62;100.00
57628;BME280;43451;49.060;10.616;2023-08-20T00:27:30;97079.97;;;20.52;100.00
57628;BME280;43451;49.060;10.616;2023-08-20T00:29:55;97082.81;;;20.49;100.00
57628;BME280;43451;49.060;10.616;2023-08-20T00:32:21;97080.66;;;20.44;100.00
57628;BME280;43451;49.060;10.616;2023-08-20T00:34:46;97081.34;;;20.35;100.00
57628;BME280;43451;49.060;10.616;2023-08-20T00:37:12;97087.63;;;20.35;100.00
57628;BME280;43451;49.060;10.616;2023-08-20T00:39:38;97077.81;;;20.34;100.00
57628;BME280;43451;49.060;10.616;2023-08-20T00:42:04;97090.00;;;20.24;100.00
57628;BME280;43451;49.060;10.616;2023-08-20T00:44:30;97090.22;;;20.17;100.00
57628;BME280;43451;49.060;10.616;2023-08-20T00:46:56;97085.28;;;20.12;100.00
57628;BME280;43451;49.060;10.616;2023-08-20T00:49:22;97081.88;;;20.08;100.00
57628;BME280;43451;49.060;10.616;2023-08-20T00:51:47;97075.69;;;20.04;100.00
57628;BME280;43451;49.060;10.616;2023-08-20T00:54:13;97070.66;;;20.02;100.00
57628;BME280;43451;49.060;10.616;2023-08-20T00:56:39;97075.81;;;20.00;100.00
57628;BME280;43451;49.060;10.616;2023-08-20T00:59:05;97082.88;;;20.01;100.00
57628;BME280;43451;49.060;10.616;2023-08-20T01:01:31;97085.56;;;19.92;100.00
57628;BME280;43451;49.060;10.616;2023-08-20T01:03:57;97091.19;;;19.88;100.00
57628;BME280;43451;49.060;10.616;2023-08-20T01:09:20;97099.38;;;19.79;100.00
57628;BME280;43451;49.060;10.616;2023-08-20T01:11:56;97094.63;;;19.80;100.00
57628;BME280;43451;49.060;10.616;2023-08-20T01:14:23;97099.94;;;19.74;100.00
57628;BME280;43451;49.060;10.616;2023-08-20T01:16:48;97100.66;;;19.87;100.00
57628;BME280;43451;49.060;10.616;2023-08-20T01:19:17;97100.91;;;19.80;100.00
57628;BME280;43451;49.060;10.616;2023-08-20T01:30:10;97107.06;;;19.59;100.00
57628;BME280;43451;49.060;10.616;2023-08-20T01:32:38;97107.72;;;19.63;100.00
57628;BME280;43451;49.060;10.616;2023-08-20T01:35:13;97108.44;;;19.67;100.00
57628;BME280;43451;49.060;10.616;2023-08-20T01:37:39;97110.47;;;19.63;100.00
57628;BME280;43451;49.060;10.616;2023-08-20T01:40:06;97114.56;;;19.58;100.00
57628;BME280;43451;49.060;10.616;2023-08-20T01:42:33;97111.16;;;19.54;100.00
57628;BME280;43451;49.060;10.616;2023-08-20T01:44:59;97113.94;;;19.80;100.00
57628;BME280;43451;49.060;10.616;2023-08-20T01:47:24;97116.00;;;19.63;100.00
57628;BME280;43451;49.060;10.616;2023-08-20T01:49:49;97120.50;;;19.57;100.00
57628;BME280;43451;49.060;10.616;2023-08-20T01:52:15;97126.94;;;19.54;100.00
57628;BME280;43451;49.060;10.616;2023-08-20T01:54:40;97116.44;;;19.48;100.00
57628;BME280;43451;49.060;10.616;2023-08-20T01:57:06;97121.63;;;19.46;100.00
57628;BME280;43451;49.060;10.616;2023-08-20T01:59:31;97122.50;;;19.43;100.00
57628;BME280;43451;49.060;10.616;2023-08-20T02:01:57;97119.97;;;19.36;100.00
57628;BME280;43451;49.060;10.616;2023-08-20T02:04:22;97122.72;;;19.36;100.00
57628;BME280;43451;49.060;10.616;2023-08-20T02:06:48;97126.59;;;19.39;100.00
57628;BME280;43451;49.060;10.616;2023-08-20T02:09:13;97121.84;;;19.39;100.00
57628;BME280;43451;49.060;10.616;2023-08-20T02:11:39;97116.22;;;19.43;100.00
57628;BME280;43451;49.060;10.616;2023-08-20T02:14:04;97115.34;;;19.46;100.00
57628;BME280;43451;49.060;10.616;2023-08-20T02:16:30;97110.28;;;19.44;100.00
57628;BME280;43451;49.060;10.616;2023-08-20T02:18:55;97112.34;;;19.40;100.00
57628;BME280;43451;49.060;10.616;2023-08-20T02:21:21;97109.94;;;19.42;100.00
57628;BME280;43451;49.060;10.616;2023-08-20T02:23:46;97111.94;;;19.42;100.00
57628;BME280;43451;49.060;10.616;2023-08-20T02:26:12;97115.13;;;19.40;100.00
57628;BME280;43451;49.060;10.616;2023-08-20T02:28:37;97123.06;;;19.38;100.00
57628;BME280;43451;49.060;10.616;2023-08-20T02:31:04;97120.97;;;19.30;100.00
57628;BME280;43451;49.060;10.616;2023-08-20T02:33:30;97122.25;;;19.25;100.00
57628;BME280;43451;49.060;10.616;2023-08-20T02:36:00;97117.19;;;19.23;100.00
57628;BME280;43451;49.060;10.616;2023-08-20T02:38:26;97120.72;;;19.24;100.00
57628;BME280;43451;49.060;10.616;2023-08-20T02:40:51;97124.25;;;19.24;100.00
57628;BME280;43451;49.060;10.616;2023-08-20T02:43:17;97118.06;;;19.20;100.00
57628;BME280;43451;49.060;10.616;2023-08-20T02:45:42;97119.50;;;19.25;100.00
57628;BME280;43451;49.060;10.616;2023-08-20T02:48:08;97130.22;;;19.23;100.00
57628;BME280;43451;49.060;10.616;2023-08-20T02:50:34;97130.63;;;19.21;100.00
57628;BME280;43451;49.060;10.616;2023-08-20T02:53:00;97121.59;;;19.21;100.00
57628;BME280;43451;49.060;10.616;2023-08-20T02:55:25;97126.44;;;19.17;100.00
57628;BME280;43451;49.060;10.616;2023-08-20T02:57:51;97124.13;;;19.15;100.00
57628;BME280;43451;49.060;10.616;2023-08-20T03:00:16;97125.78;;;19.13;100.00
57628;BME280;43451;49.060;10.616;2023-08-20T03:02:41;97122.69;;;19.11;100.00
57628;BME280;43451;49.060;10.616;2023-08-20T03:05:09;97113.22;;;19.12;100.00
57628;BME280;43451;49.060;10.616;2023-08-20T03:07:35;97114.84;;;19.09;100.00
57628;BME280;43451;49.060;10.616;2023-08-20T03:10:00;97114.97;;;19.06;100.00
57628;BME280;43451;49.060;10.616;2023-08-20T03:12:26;97110.44;;;18.99;100.00
57628;BME280;43451;49.060;10.616;2023-08-20T03:14:51;97114.41;;;18.98;100.00
57628;BME280;43451;49.060;10.616;2023-08-20T03:17:17;97121.56;;;18.95;100.00
57628;BME280;43451;49.060;10.616;2023-08-20T03:19:59;97117.78;;;18.89;100.00
57628;BME280;43451;49.060;10.616;2023-08-20T03:22:26;97120.91;;;18.91;100.00
57628;BME280;43451;49.060;10.616;2023-08-20T03:24:52;97126.63;;;18.84;100.00
57628;BME280;43451;49.060;10.616;2023-08-20T03:27:18;97123.31;;;18.89;100.00
57628;BME280;43451;49.060;10.616;2023-08-20T03:29:43;97122.28;;;18.83;100.00
57628;BME280;43451;49.060;10.616;2023-08-20T03:32:09;97118.00;;;18.82;100.00
57628;BME280;43451;49.060;10.616;2023-08-20T03:34:35;97124.72;;;18.81;100.00
57628;BME280;43451;49.060;10.616;2023-08-20T03:37:01;97120.41;;;18.80;100.00
57628;BME280;43451;49.060;10.616;2023-08-20T03:39:26;97124.91;;;18.74;100.00
57628;BME280;43451;49.060;10.616;2023-08-20T03:41:52;97125.34;;;18.72;100.00
57628;BME280;43451;49.060;10.616;2023-08-20T03:44:18;97119.16;;;18.68;100.00
57628;BME280;43451;49.060;10.616;2023-08-20T03:46:44;97122.09;;;18.61;100.00
57628;BME280;43451;49.060;10.616;2023-08-20T03:49:09;97126.50;;;18.59;100.00
57628;BME280;43451;49.060;10.616;2023-08-20T03:51:35;97110.31;;;18.61;100.00
57628;BME280;43451;49.060;10.616;2023-08-20T03:54:02;97121.75;;;18.59;100.00
57628;BME280;43451;49.060;10.616;2023-08-20T03:56:27;97119.44;;;18.58;100.00
57628;BME280;43451;49.060;10.616;2023-08-20T03:58:53;97122.28;;;18.54;100.00
57628;BME280;43451;49.060;10.616;2023-08-20T04:01:18;97120.31;;;18.54;100.00
57628;BME280;43451;49.060;10.616;2023-08-20T04:03:46;97116.53;;;18.48;100.00
57628;BME280;43451;49.060;10.616;2023-08-20T04:06:11;97126.00;;;18.47;100.00
57628;BME280;43451;49.060;10.616;2023-08-20T04:08:37;97117.41;;;18.45;100.00
57628;BME280;43451;49.060;10.616;2023-08-20T04:11:02;97122.56;;;18.43;100.00
57628;BME280;43451;49.060;10.616;2023-08-20T04:13:29;97132.38;;;18.44;100.00
57628;BME280;43451;49.060;10.616;2023-08-20T04:15:55;97133.91;;;18.45;100.00
57628;BME280;43451;49.060;10.616;2023-08-20T04:18:20;97132.38;;;18.44;100.00
57628;BME280;43451;49.060;10.616;2023-08-20T04:20:47;97133.91;;;18.45;100.00
57628;BME280;43451;49.060;10.616;2023-08-20T04:23:13;97138.22;;;18.46;100.00
57628;BME280;43451;49.060;10.616;2023-08-20T04:25:38;97132.19;;;18.51;100.00
57628;BME280;43451;49.060;10.616;2023-08-20T04:28:05;97136.91;;;18.51;100.00
57628;BME280;43451;49.060;10.616;2023-08-20T04:30:30;97138.03;;;18.53;100.00
57628;BME280;43451;49.060;10.616;2023-08-20T04:32:56;97137.25;;;18.53;100.00
57628;BME280;43451;49.060;10.616;2023-08-20T04:35:21;97125.13;;;18.50;100.00
57628;BME280;43451;49.060;10.616;2023-08-20T04:37:47;97138.53;;;18.48;100.00
57628;BME280;43451;49.060;10.616;2023-08-20T04:40:12;97135.78;;;18.48;100.00
57628;BME280;43451;49.060;10.616;2023-08-20T04:42:38;97135.47;;;18.46;100.00
57628;BME280;43451;49.060;10.616;2023-08-20T04:45:04;97137.88;;;18.44;100.00
57628;BME280;43451;49.060;10.616;2023-08-20T04:47:30;97137.09;;;18.44;100.00
57628;BME280;43451;49.060;10.616;2023-08-20T04:49:55;97136.25;;;18.47;100.00
57628;BME280;43451;49.060;10.616;2023-08-20T04:52:20;97138.53;;;18.48;100.00
57628;BME280;43451;49.060;10.616;2023-08-20T04:54:47;97145.25;;;18.47;100.00
57628;BME280;43451;49.060;10.616;2023-08-20T04:57:12;97146.78;;;18.48;100.00
57628;BME280;43451;49.060;10.616;2023-08-20T04:59:38;97144.66;;;18.56;100.00
57628;BME280;43451;49.060;10.616;2023-08-20T05:02:04;97153.22;;;18.58;100.00
57628;BME280;43451;49.060;10.616;2023-08-20T05:04:30;97146.53;;;18.59;100.00
57628;BME280;43451;49.060;10.616;2023-08-20T05:06:55;97153.56;;;18.60;100.00
57628;BME280;43451;49.060;10.616;2023-08-20T05:09:21;97163.25;;;18.65;100.00
57628;BME280;43451;49.060;10.616;2023-08-20T05:11:48;97150.63;;;18.67;100.00
57628;BME280;43451;49.060;10.616;2023-08-20T05:14:14;97160.00;;;18.70;100.00
57628;BME280;43451;49.060;10.616;2023-08-20T05:16:39;97165.84;;;18.72;100.00
57628;BME280;43451;49.060;10.616;2023-08-20T05:19:05;97170.84;;;18.77;100.00
57628;BME280;43451;49.060;10.616;2023-08-20T05:21:30;97174.69;;;18.79;100.00
57628;BME280;43451;49.060;10.616;2023-08-20T05:23:56;97169.88;;;18.84;100.00
57628;BME280;43451;49.060;10.616;2023-08-20T05:29:01;97169.59;;;18.94;100.00
57628;BME280;43451;49.060;10.616;2023-08-20T05:31:26;97175.75;;;18.98;100.00
57628;BME280;43451;49.060;10.616;2023-08-20T05:33:52;97174.78;;;19.05;100.00
57628;BME280;43451;49.060;10.616;2023-08-20T05:36:17;97177.00;;;19.10;100.00
57628;BME280;43451;49.060;10.616;2023-08-20T05:38:43;97184.72;;;19.15;100.00
57628;BME280;43451;49.060;10.616;2023-08-20T05:41:09;97189.34;;;19.18;100.00
57628;BME280;43451;49.060;10.616;2023-08-20T05:43:34;97188.06;;;19.23;100.00
57628;BME280;43451;49.060;10.616;2023-08-20T05:46:02;97189.94;;;19.26;100.00
57628;BME280;43451;49.060;10.616;2023-08-20T05:48:27;97191.72;;;19.33;100.00
57628;BME280;43451;49.060;10.616;2023-08-20T05:50:53;97184.47;;;19.39;100.00
57628;BME280;43451;49.060;10.616;2023-08-20T05:53:18;97188.31;;;19.41;100.00
57628;BME280;43451;49.060;10.616;2023-08-20T05:55:44;97190.00;;;19.52;100.00
57628;BME280;43451;49.060;10.616;2023-08-20T05:58:09;97184.91;;;19.63;100.00
57628;BME280;43451;49.060;10.616;2023-08-20T06:00:35;97180.75;;;19.71;100.00
57628;BME280;43451;49.060;10.616;2023-08-20T06:03:00;97175.78;;;19.79;100.00
57628;BME280;43451;49.060;10.616;2023-08-20T06:05:26;97180.09;;;19.92;100.00
57628;BME280;43451;49.060;10.616;2023-08-20T06:07:51;97180.97;;;20.15;100.00
57628;BME280;43451;49.060;10.616;2023-08-20T06:10:17;97177.97;;;20.22;100.00
57628;BME280;43451;49.060;10.616;2023-08-20T06:12:42;97179.28;;;20.30;100.00
57628;BME280;43451;49.060;10.616;2023-08-20T06:15:08;97176.28;;;20.37;100.00
57628;BME280;43451;49.060;10.616;2023-08-20T06:17:34;97170.38;;;20.48;100.00
57628;BME280;43451;49.060;10.616;2023-08-20T06:19:59;97168.03;;;20.72;100.00
57628;BME280;43451;49.060;10.616;2023-08-20T06:22:25;97165.13;;;20.76;100.00
57628;BME280;43451;49.060;10.616;2023-08-20T06:24:50;97169.00;;;20.78;100.00
57628;BME280;43451;49.060;10.616;2023-08-20T06:27:16;97169.19;;;20.84;100.00
57628;BME280;43451;49.060;10.616;2023-08-20T06:29:41;97172.47;;;20.92;100.00
57628;BME280;43451;49.060;10.616;2023-08-20T06:32:07;97167.91;;;20.98;100.00
57628;BME280;43451;49.060;10.616;2023-08-20T06:34:34;97171.97;;;21.06;100.00
57628;BME280;43451;49.060;10.616;2023-08-20T06:37:00;97168.03;;;21.16;100.00
57628;BME280;43451;49.060;10.616;2023-08-20T06:39:25;97155.03;;;21.26;100.00
57628;BME280;43451;49.060;10.616;2023-08-20T06:41:51;97157.09;;;21.35;100.00
57628;BME280;43451;49.060;10.616;2023-08-20T06:44:16;97155.03;;;21.48;100.00
57628;BME280;43451;49.060;10.616;2023-08-20T06:46:42;97163.66;;;21.59;100.00
57628;BME280;43451;49.060;10.616;2023-08-20T06:49:08;97166.81;;;21.70;100.00
57628;BME280;43451;49.060;10.616;2023-08-20T06:51:33;97167.13;;;21.82;100.00
57628;BME280;43451;49.060;10.616;2023-08-20T06:53:59;97173.03;;;21.93;100.00
57628;BME280;43451;49.060;10.616;2023-08-20T06:56:24;97168.47;;;22.08;100.00
57628;BME280;43451;49.060;10.616;2023-08-20T06:58:50;97169.75;;;22.16;100.00
57628;BME280;43451;49.060;10.616;2023-08-20T07:01:16;97173.75;;;22.24;100.00
57628;BME280;43451;49.060;10.616;2023-08-20T07:03:44;97176.56;;;22.34;100.00
57628;BME280;43451;49.060;10.616;2023-08-20T07:06:10;97176.56;;;22.43;100.00
57628;BME280;43451;49.060;10.616;2023-08-20T07:08:37;97176.88;;;22.54;100.00
57628;BME280;43451;49.060;10.616;2023-08-20T07:11:04;97178.56;;;22.61;100.00
57628;BME280;43451;49.060;10.616;2023-08-20T07:13:30;97183.69;;;22.71;100.00
57628;BME280;43451;49.060;10.616;2023-08-20T07:15:56;97188.28;;;22.84;100.00
57628;BME280;43451;49.060;10.616;2023-08-20T07:18:21;97189.69;;;22.98;100.00
57628;BME280;43451;49.060;10.616;2023-08-20T07:20:47;97191.22;;;23.08;100.00
57628;BME280;43451;49.060;10.616;2023-08-20T07:23:13;97191.38;;;23.23;100.00
57628;BME280;43451;49.060;10.616;2023-08-20T07:25:40;97203.03;;;23.36;100.00
57628;BME280;43451;49.060;10.616;2023-08-20T07:28:07;97203.34;;;23.47;100.00
57628;BME280;43451;49.060;10.616;2023-08-20T07:30:35;97201.31;;;23.57;100.00
57628;BME280;43451;49.060;10.616;2023-08-20T07:33:01;97199.28;;;23.67;100.00
57628;BME280;43451;49.060;10.616;2023-08-20T07:35:27;97193.53;;;23.89;100.00
57628;BME280;43451;49.060;10.616;2023-08-20T07:37:52;97193.50;;;23.98;100.00
57628;BME280;43451;49.060;10.616;2023-08-20T07:40:18;97198.41;;;24.27;100.00
57628;BME280;43451;49.060;10.616;2023-08-20T07:42:44;97201.03;;;24.30;100.00
57628;BME280;43451;49.060;10.616;2023-08-20T07:45:10;97204.56;;;24.31;100.00
57628;BME280;43451;49.060;10.616;2023-08-20T07:47:36;97194.16;;;24.41;100.00
57628;BME280;43451;49.060;10.616;2023-08-20T07:50:03;97199.50;;;24.53;100.00
57628;BME280;43451;49.060;10.616;2023-08-20T07:52:30;97203.19;;;24.60;100.00
57628;BME280;43451;49.060;10.616;2023-08-20T07:54:56;97198.19;;;24.64;100.00
57628;BME280;43451;49.060;10.616;2023-08-20T07:57:21;97202.47;;;24.74;100.00
57628;BME280;43451;49.060;10.616;2023-08-20T07:59:51;97195.97;;;24.77;100.00
57628;BME280;43451;49.060;10.616;2023-08-20T08:02:17;97198.06;;;24.82;100.00
57628;BME280;43451;49.060;10.616;2023-08-20T08:04:43;97198.00;;;24.91;100.00
57628;BME280;43451;49.060;10.616;2023-08-20T08:07:12;97193.25;;;25.07;100.00
57628;BME280;43451;49.060;10.616;2023-08-20T08:09:37;97190.69;;;25.33;100.00
57628;BME280;43451;49.060;10.616;2023-08-20T08:12:04;97192.91;;;25.43;100.00
57628;BME280;43451;49.060;10.616;2023-08-20T08:14:30;97191.66;;;25.44;100.00
57628;BME280;43451;49.060;10.616;2023-08-20T08:16:56;97197.22;;;25.59;100.00
57628;BME280;43451;49.060;10.616;2023-08-20T08:19:21;97197.41;;;25.56;100.00
57628;BME280;43451;49.060;10.616;2023-08-20T08:21:47;97213.13;;;25.59;100.00
57628;BME280;43451;49.060;10.616;2023-08-20T08:24:13;97210.66;;;25.61;100.00
57628;BME280;43451;49.060;10.616;2023-08-20T08:26:39;97220.06;;;25.63;100.00
57628;BME280;43451;49.060;10.616;2023-08-20T08:29:06;97223.13;;;25.65;100.00
57628;BME280;43451;49.060;10.616;2023-08-20T08:31:32;97230.81;;;25.70;100.00
57628;BME280;43451;49.060;10.616;2023-08-20T08:33:58;97240.97;;;25.74;100.00
57628;BME280;43451;49.060;10.616;2023-08-20T08:36:23;97235.81;;;25.81;100.00
57628;BME280;43451;49.060;10.616;2023-08-20T08:38:52;97224.47;;;26.00;100.00
57628;BME280;43451;49.060;10.616;2023-08-20T08:41:21;97225.19;;;26.15;92.41
57628;BME280;43451;49.060;10.616;2023-08-20T08:43:49;97222.13;;;26.13;96.08
57628;BME280;43451;49.060;10.616;2023-08-20T08:46:15;97223.81;;;26.25;91.13
57628;BME280;43451;49.060;10.616;2023-08-20T08:48:43;97223.88;;;26.46;88.57
57628;BME280;43451;49.060;10.616;2023-08-20T08:51:09;97231.09;;;26.37;92.55
57628;BME280;43451;49.060;10.616;2023-08-20T08:53:35;97230.03;;;26.35;86.10
57628;BME280;43451;49.060;10.616;2023-08-20T08:56:01;97232.69;;;26.79;76.08
57628;BME280;43451;49.060;10.616;2023-08-20T08:58:28;97229.91;;;27.00;77.13
57628;BME280;43451;49.060;10.616;2023-08-20T09:00:54;97234.09;;;26.90;85.25
57628;BME280;43451;49.060;10.616;2023-08-20T09:03:20;97230.25;;;26.87;86.24
57628;BME280;43451;49.060;10.616;2023-08-20T09:05:56;97221.47;;;26.94;85.11
57628;BME280;43451;49.060;10.616;2023-08-20T09:08:27;97224.75;;;26.93;89.96
57628;BME280;43451;49.060;10.616;2023-08-20T09:10:53;97217.97;;;26.99;84.88
57628;BME280;43451;49.060;10.616;2023-08-20T09:13:24;97223.13;;;27.06;84.50
57628;BME280;43451;49.060;10.616;2023-08-20T09:15:54;97221.63;;;27.11;91.24
57628;BME280;43451;49.060;10.616;2023-08-20T09:18:21;97225.97;;;27.12;88.86
57628;BME280;43451;49.060;10.616;2023-08-20T09:20:50;97218.38;;;27.13;88.26
57628;BME280;43451;49.060;10.616;2023-08-20T09:23:17;97217.50;;;27.21;88.37
57628;BME280;43451;49.060;10.616;2023-08-20T09:25:44;97221.66;;;27.31;87.84
57628;BME280;43451;49.060;10.616;2023-08-20T09:28:10;97227.22;;;27.58;81.85
57628;BME280;43451;49.060;10.616;2023-08-20T09:30:37;97223.22;;;27.64;84.62
57628;BME280;43451;49.060;10.616;2023-08-20T09:33:11;97224.47;;;27.63;89.23
57628;BME280;43451;49.060;10.616;2023-08-20T09:35:37;97226.28;;;27.66;84.33
57628;BME280;43451;49.060;10.616;2023-08-20T09:38:05;97221.97;;;27.97;76.18
57628;BME280;43451;49.060;10.616;2023-08-20T09:40:31;97230.97;;;28.12;76.89
57628;BME280;43451;49.060;10.616;2023-08-20T09:42:57;97232.19;;;28.06;76.98
57628;BME280;43451;49.060;10.616;2023-08-20T09:45:28;97229.06;;;28.30;68.44
57628;BME280;43451;49.060;10.616;2023-08-20T09:47:59;97225.47;;;28.23;71.97
57628;BME280;43451;49.060;10.616;2023-08-20T09:50:26;97228.31;;;28.35;70.56
57628;BME280;43451;49.060;10.616;2023-08-20T09:53:07;97231.00;;;28.50;65.82
57628;BME280;43451;49.060;10.616;2023-08-20T09:55:39;97224.75;;;28.72;60.70
57628;BME280;43451;49.060;10.616;2023-08-20T09:58:06;97226.81;;;28.77;72.06
57628;BME280;43451;49.060;10.616;2023-08-20T10:00:33;97226.25;;;28.67;76.39
57628;BME280;43451;49.060;10.616;2023-08-20T10:02:59;97231.72;;;28.93;59.89
57628;BME280;43451;49.060;10.616;2023-08-20T10:05:25;97224.59;;;28.98;63.98
57628;BME280;43451;49.060;10.616;2023-08-20T10:07:52;97228.47;;;29.11;57.72
57628;BME280;43451;49.060;10.616;2023-08-20T10:10:18;97223.66;;;29.18;56.77
57628;BME280;43451;49.060;10.616;2023-08-20T10:12:44;97223.47;;;29.38;59.81
57628;BME280;43451;49.060;10.616;2023-08-20T10:15:12;97219.66;;;29.41;57.50
57628;BME280;43451;49.060;10.616;2023-08-20T10:17:41;97222.19;;;29.45;61.09
57628;BME280;43451;49.060;10.616;2023-08-20T10:20:08;97219.91;;;29.49;65.42
57628;BME280;43451;49.060;10.616;2023-08-20T10:22:41;97219.72;;;29.69;63.13
57628;BME280;43451;49.060;10.616;2023-08-20T10:25:08;97230.91;;;29.80;59.83
57628;BME280;43451;49.060;10.616;2023-08-20T10:27:37;97224.78;;;29.99;57.17
57628;BME280;43451;49.060;10.616;2023-08-20T10:30:08;97228.63;;;30.01;57.01
57628;BME280;43451;49.060;10.616;2023-08-20T10:32:50;97226.06;;;30.15;54.17
57628;BME280;43451;49.060;10.616;2023-08-20T10:35:23;97227.34;;;30.19;59.58
57628;BME280;43451;49.060;10.616;2023-08-20T10:38:14;97229.88;;;30.17;56.48
57628;BME280;43451;49.060;10.616;2023-08-20T10:40:55;97228.88;;;30.20;59.77
57628;BME280;43451;49.060;10.616;2023-08-20T10:43:34;97224.00;;;30.15;64.26
57628;BME280;43451;49.060;10.616;2023-08-20T10:46:05;97218.91;;;30.25;57.30
57628;BME280;43451;49.060;10.616;2023-08-20T10:48:36;97222.97;;;30.18;58.62
57628;BME280;43451;49.060;10.616;2023-08-20T10:51:18;97226.06;;;30.20;64.23
57628;BME280;43451;49.060;10.616;2023-08-20T10:56:44;97222.22;;;30.40;58.56
57628;BME280;43451;49.060;10.616;2023-08-20T10:59:23;97220.91;;;30.41;53.40
57628;BME280;43451;49.060;10.616;2023-08-20T11:01:55;97216.34;;;30.44;53.88
57628;BME280;43451;49.060;10.616;2023-08-20T11:04:23;97215.78;;;30.57;58.68
57628;BME280;43451;49.060;10.616;2023-08-20T11:06:58;97218.31;;;30.66;56.05
57628;BME280;43451;49.060;10.616;2023-08-20T11:09:29;97213.44;;;30.78;52.58
57628;BME280;43451;49.060;10.616;2023-08-20T11:11:55;97209.88;;;30.77;52.25
57628;BME280;43451;49.060;10.616;2023-08-20T11:14:22;97216.19;;;30.94;50.64
57628;BME280;43451;49.060;10.616;2023-08-20T11:16:48;97203.72;;;30.90;50.02
57628;BME280;43451;49.060;10.616;2023-08-20T11:19:14;97201.19;;;30.75;59.68
57628;BME280;43451;49.060;10.616;2023-08-20T11:21:44;97208.06;;;30.85;55.89
57628;BME280;43451;49.060;10.616;2023-08-20T11:24:10;97202.47;;;30.74;51.10
57628;BME280;43451;49.060;10.616;2023-08-20T11:26:38;97204.50;;;30.79;48.60
57628;BME280;43451;49.060;10.616;2023-08-20T11:29:15;97201.91;;;30.92;49.46
57628;BME280;43451;49.060;10.616;2023-08-20T11:31:46;97200.69;;;30.76;52.52
57628;BME280;43451;49.060;10.616;2023-08-20T11:34:12;97213.47;;;30.66;48.73
57628;BME280;43451;49.060;10.616;2023-08-20T11:36:41;97207.63;;;30.59;58.37
57628;BME280;43451;49.060;10.616;2023-08-20T11:39:08;97212.50;;;30.52;57.30
57628;BME280;43451;49.060;10.616;2023-08-20T11:41:37;97205.84;;;30.56;63.41
57628;BME280;43451;49.060;10.616;2023-08-20T11:44:03;97201.72;;;30.68;56.86
57628;BME280;43451;49.060;10.616;2023-08-20T11:49:28;97201.97;;;30.70;53.27
57628;BME280;43451;49.060;10.616;2023-08-20T11:51:55;97201.47;;;30.66;52.85
57628;BME280;43451;49.060;10.616;2023-08-20T11:54:20;97194.81;;;30.80;51.68
57628;BME280;43451;49.060;10.616;2023-08-20T11:56:51;97189.63;;;30.95;48.56
57628;BME280;43451;49.060;10.616;2023-08-20T11:59:19;97188.28;;;31.08;48.88
57628;BME280;43451;49.060;10.616;2023-08-20T12:01:58;97189.84;;;31.09;51.20
57628;BME280;43451;49.060;10.616;2023-08-20T12:04:27;97184.69;;;31.13;49.65
57628;BME280;43451;49.060;10.616;2023-08-20T12:07:03;97184.94;;;31.15;44.90
57628;BME280;43451;49.060;10.616;2023-08-20T12:09:31;97177.72;;;31.25;42.26
57628;BME280;43451;49.060;10.616;2023-08-20T12:11:56;97176.97;;;31.25;46.13
57628;BME280;43451;49.060;10.616;2023-08-20T12:14:23;97176.97;;;31.25;45.11
57628;BME280;43451;49.060;10.616;2023-08-20T12:16:49;97175.44;;;31.23;44.02
57628;BME280;43451;49.060;10.616;2023-08-20T12:19:18;97174.09;;;31.30;48.89
57628;BME280;43451;49.060;10.616;2023-08-20T12:21:45;97168.63;;;31.13;56.96
57628;BME280;43451;49.060;10.616;2023-08-20T12:24:11;97172.56;;;31.40;44.76
57628;BME280;43451;49.060;10.616;2023-08-20T12:26:37;97172.31;;;31.33;48.94
57628;BME280;43451;49.060;10.616;2023-08-20T12:29:03;97166.22;;;31.64;39.62
57628;BME280;43451;49.060;10.616;2023-08-20T12:31:29;97169.91;;;31.54;43.99
57628;BME280;43451;49.060;10.616;2023-08-20T12:33:54;97167.84;;;31.54;45.23
57628;BME280;43451;49.060;10.616;2023-08-20T12:36:20;97169.53;;;31.68;46.93
57628;BME280;43451;49.060;10.616;2023-08-20T12:38:46;97166.31;;;31.83;45.13
57628;BME280;43451;49.060;10.616;2023-08-20T12:41:11;97154.13;;;31.75;50.97
57628;BME280;43451;49.060;10.616;2023-08-20T12:43:37;97163.41;;;31.64;45.48
57628;BME280;43451;49.060;10.616;2023-08-20T12:46:02;97156.94;;;31.75;44.35
57628;BME280;43451;49.060;10.616;2023-08-20T12:48:29;97151.88;;;31.68;43.18
57628;BME280;43451;49.060;10.616;2023-08-20T12:50:55;97145.22;;;31.71;42.84
57628;BME280;43451;49.060;10.616;2023-08-20T12:53:21;97146.94;;;31.80;43.16
57628;BME280;43451;49.060;10.616;2023-08-20T12:55:47;97150.91;;;31.96;47.27
57628;BME280;43451;49.060;10.616;2023-08-20T12:58:12;97147.69;;;32.10;46.81
57628;BME280;43451;49.060;10.616;2023-08-20T13:00:38;97144.84;;;31.86;53.42